sensor_id;sensor_type;location;lat;lon;timestamp;P1;durP1;ratioP1;P2;durP2;ratioP2
62475;SDS011;50739;45.670;11.936;2022-08-11T00:01:24;4.13;;;1.88;;
62475;SDS011;50739;45.670;11.936;2022-08-11T00:06:30;3.10;;;1.80;;
62475;SDS011;50739;45.670;11.936;2022-08-11T00:11:36;2.63;;;1.90;;
62475;SDS011;50739;45.670;11.936;2022-08-11T00:16:40;4.73;;;1.93;;
62475;SDS011;50739;45.670;11.936;2022-08-11T00:21:56;2.33;;;1.90;;
62475;SDS011;50739;45.670;11.936;2022-08-11T00:27:12;2.53;;;1.80;;
62475;SDS011;50739;45.670;11.936;2022-08-11T00:32:15;3.10;;;1.75;;
62475;SDS011;50739;45.670;11.936;2022-08-11T00:37:18;2.00;;;1.70;;
62475;SDS011;50739;45.670;11.936;2022-08-11T00:42:25;3.97;;;1.85;;
62475;SDS011;50739;45.670;11.936;2022-08-11T00:47:41;3.05;;;1.73;;
62475;SDS011;50739;45.670;11.936;2022-08-11T00:53:02;9.02;;;2.80;;
62475;SDS011;50739;45.670;11.936;2022-08-11T00:58:37;3.67;;;1.92;;
62475;SDS011;50739;45.670;11.936;2022-08-11T01:04:35;2.13;;;1.90;;
62475;SDS011;50739;45.670;11.936;2022-08-11T01:09:59;2.95;;;1.90;;
62475;SDS011;50739;45.670;11.936;2022-08-11T01:15:32;2.50;;;1.90;;
62475;SDS011;50739;45.670;11.936;2022-08-11T01:21:02;2.90;;;1.80;;
62475;SDS011;50739;45.670;11.936;2022-08-11T01:32:20;2.90;;;1.88;;
62475;SDS011;50739;45.670;11.936;2022-08-11T01:43:39;2.10;;;1.90;;
62475;SDS011;50739;45.670;11.936;2022-08-11T01:49:20;2.57;;;1.83;;
62475;SDS011;50739;45.670;11.936;2022-08-11T01:54:31;3.28;;;1.80;;
62475;SDS011;50739;45.670;11.936;2022-08-11T01:59:38;3.10;;;1.90;;
62475;SDS011;50739;45.670;11.936;2022-08-11T02:04:50;2.38;;;1.63;;
62475;SDS011;50739;45.670;11.936;2022-08-11T02:10:13;5.33;;;2.17;;
62475;SDS011;50739;45.670;11.936;2022-08-11T02:15:37;3.63;;;2.00;;
62475;SDS011;50739;45.670;11.936;2022-08-11T02:20:51;5.53;;;2.08;;
62475;SDS011;50739;45.670;11.936;2022-08-11T02:26:17;3.75;;;2.15;;
62475;SDS011;50739;45.670;11.936;2022-08-11T02:31:24;4.40;;;1.95;;
62475;SDS011;50739;45.670;11.936;2022-08-11T02:36:58;3.13;;;1.90;;
62475;SDS011;50739;45.670;11.936;2022-08-11T02:42:19;3.15;;;2.00;;
62475;SDS011;50739;45.670;11.936;2022-08-11T02:47:34;2.30;;;2.10;;
62475;SDS011;50739;45.670;11.936;2022-08-11T02:52:42;2.77;;;1.83;;
62475;SDS011;50739;45.670;11.936;2022-08-11T02:57:53;2.37;;;1.87;;
62475;SDS011;50739;45.670;11.936;2022-08-11T03:03:12;3.20;;;2.00;;
62475;SDS011;50739;45.670;11.936;2022-08-11T03:08:24;2.87;;;1.80;;
62475;SDS011;50739;45.670;11.936;2022-08-11T03:13:40;2.03;;;1.70;;
62475;SDS011;50739;45.670;11.936;2022-08-11T03:19:07;2.03;;;1.83;;
62475;SDS011;50739;45.670;11.936;2022-08-11T03:24:17;3.30;;;1.97;;
62475;SDS011;50739;45.670;11.936;2022-08-11T03:29:26;3.20;;;2.10;;
62475;SDS011;50739;45.670;11.936;2022-08-11T03:34:34;3.33;;;2.00;;
62475;SDS011;50739;45.670;11.936;2022-08-11T03:39:46;4.28;;;1.90;;
62475;SDS011;50739;45.670;11.936;2022-08-11T03:44:59;3.60;;;2.20;;
62475;SDS011;50739;45.670;11.936;2022-08-11T03:50:15;3.53;;;1.92;;
62475;SDS011;50739;45.670;11.936;2022-08-11T03:55:31;1.98;;;1.77;;
62475;SDS011;50739;45.670;11.936;2022-08-11T04:00:53;2.80;;;1.90;;
62475;SDS011;50739;45.670;11.936;2022-08-11T04:06:39;3.85;;;1.98;;
62475;SDS011;50739;45.670;11.936;2022-08-11T04:23:24;4.13;;;1.95;;
62475;SDS011;50739;45.670;11.936;2022-08-11T04:28:54;4.73;;;2.00;;
62475;SDS011;50739;45.670;11.936;2022-08-11T04:34:08;3.50;;;2.67;;
62475;SDS011;50739;45.670;11.936;2022-08-11T04:39:28;3.35;;;2.10;;
62475;SDS011;50739;45.670;11.936;2022-08-11T04:44:50;4.10;;;1.90;;
62475;SDS011;50739;45.670;11.936;2022-08-11T04:50:16;4.00;;;2.13;;
62475;SDS011;50739;45.670;11.936;2022-08-11T04:55:50;5.07;;;2.20;;
62475;SDS011;50739;45.670;11.936;2022-08-11T05:01:27;3.13;;;2.08;;
62475;SDS011;50739;45.670;11.936;2022-08-11T05:12:19;3.77;;;2.10;;
62475;SDS011;50739;45.670;11.936;2022-08-11T05:17:40;3.95;;;2.25;;
62475;SDS011;50739;45.670;11.936;2022-08-11T05:23:04;3.22;;;1.92;;
62475;SDS011;50739;45.670;11.936;2022-08-11T05:28:28;3.65;;;2.10;;
62475;SDS011;50739;45.670;11.936;2022-08-11T05:33:50;2.63;;;1.73;;
62475;SDS011;50739;45.670;11.936;2022-08-11T05:39:16;3.45;;;1.60;;
62475;SDS011;50739;45.670;11.936;2022-08-11T05:44:39;3.28;;;1.65;;
62475;SDS011;50739;45.670;11.936;2022-08-11T05:50:03;2.17;;;1.60;;
62475;SDS011;50739;45.670;11.936;2022-08-11T05:55:29;4.75;;;1.70;;
62475;SDS011;50739;45.670;11.936;2022-08-11T06:00:48;2.88;;;1.98;;
62475;SDS011;50739;45.670;11.936;2022-08-11T06:05:50;4.00;;;1.80;;
62475;SDS011;50739;45.670;11.936;2022-08-11T06:10:57;4.53;;;2.40;;
62475;SDS011;50739;45.670;11.936;2022-08-11T06:16:01;5.33;;;2.10;;
62475;SDS011;50739;45.670;11.936;2022-08-11T06:21:07;5.25;;;2.25;;
62475;SDS011;50739;45.670;11.936;2022-08-11T06:26:12;6.00;;;2.63;;
62475;SDS011;50739;45.670;11.936;2022-08-11T06:31:15;5.40;;;2.00;;
62475;SDS011;50739;45.670;11.936;2022-08-11T06:36:21;4.80;;;2.43;;
62475;SDS011;50739;45.670;11.936;2022-08-11T06:41:32;5.50;;;1.93;;
62475;SDS011;50739;45.670;11.936;2022-08-11T06:46:41;4.88;;;2.08;;
62475;SDS011;50739;45.670;11.936;2022-08-11T06:51:46;2.70;;;1.90;;
62475;SDS011;50739;45.670;11.936;2022-08-11T06:56:50;3.27;;;1.87;;
62475;SDS011;50739;45.670;11.936;2022-08-11T07:02:12;5.00;;;1.97;;
62475;SDS011;50739;45.670;11.936;2022-08-11T07:13:21;5.33;;;1.80;;
62475;SDS011;50739;45.670;11.936;2022-08-11T07:18:41;3.90;;;1.83;;
62475;SDS011;50739;45.670;11.936;2022-08-11T07:24:12;4.18;;;2.00;;
62475;SDS011;50739;45.670;11.936;2022-08-11T07:29:36;3.33;;;1.83;;
62475;SDS011;50739;45.670;11.936;2022-08-11T07:34:46;4.38;;;1.85;;
62475;SDS011;50739;45.670;11.936;2022-08-11T07:39:53;3.80;;;1.60;;
62475;SDS011;50739;45.670;11.936;2022-08-11T07:45:00;3.28;;;1.50;;
62475;SDS011;50739;45.670;11.936;2022-08-11T07:50:22;2.63;;;1.40;;
62475;SDS011;50739;45.670;11.936;2022-08-11T07:55:42;3.10;;;2.00;;
62475;SDS011;50739;45.670;11.936;2022-08-11T08:00:46;2.20;;;1.60;;
62475;SDS011;50739;45.670;11.936;2022-08-11T08:06:07;4.22;;;1.60;;
62475;SDS011;50739;45.670;11.936;2022-08-11T08:11:27;2.33;;;1.20;;
62475;SDS011;50739;45.670;11.936;2022-08-11T08:16:48;2.50;;;1.25;;
62475;SDS011;50739;45.670;11.936;2022-08-11T08:22:08;2.13;;;1.20;;
62475;SDS011;50739;45.670;11.936;2022-08-11T08:27:11;2.97;;;1.40;;
62475;SDS011;50739;45.670;11.936;2022-08-11T08:32:15;3.50;;;1.45;;
62475;SDS011;50739;45.670;11.936;2022-08-11T08:37:19;2.22;;;1.25;;
62475;SDS011;50739;45.670;11.936;2022-08-11T08:42:23;2.92;;;1.50;;
62475;SDS011;50739;45.670;11.936;2022-08-11T08:47:34;2.70;;;1.40;;
62475;SDS011;50739;45.670;11.936;2022-08-11T08:52:41;1.73;;;1.50;;
62475;SDS011;50739;45.670;11.936;2022-08-11T08:57:51;1.42;;;1.33;;
62475;SDS011;50739;45.670;11.936;2022-08-11T09:03:01;1.77;;;1.40;;
62475;SDS011;50739;45.670;11.936;2022-08-11T09:08:03;1.63;;;1.33;;
62475;SDS011;50739;45.670;11.936;2022-08-11T09:13:06;2.75;;;1.75;;
62475;SDS011;50739;45.670;11.936;2022-08-11T09:18:10;3.38;;;1.92;;
62475;SDS011;50739;45.670;11.936;2022-08-11T09:23:13;2.90;;;1.40;;
62475;SDS011;50739;45.670;11.936;2022-08-11T09:28:33;3.80;;;1.70;;
62475;SDS011;50739;45.670;11.936;2022-08-11T09:33:38;3.03;;;1.45;;
62475;SDS011;50739;45.670;11.936;2022-08-11T09:38:42;2.88;;;1.60;;
62475;SDS011;50739;45.670;11.936;2022-08-11T09:44:03;1.97;;;1.40;;
62475;SDS011;50739;45.670;11.936;2022-08-11T09:49:24;2.67;;;1.30;;
62475;SDS011;50739;45.670;11.936;2022-08-11T09:54:27;2.25;;;1.42;;
62475;SDS011;50739;45.670;11.936;2022-08-11T09:59:29;1.95;;;1.25;;
62475;SDS011;50739;45.670;11.936;2022-08-11T10:04:40;1.90;;;1.10;;
62475;SDS011;50739;45.670;11.936;2022-08-11T10:09:45;2.53;;;1.30;;
62475;SDS011;50739;45.670;11.936;2022-08-11T10:14:51;1.60;;;1.13;;
62475;SDS011;50739;45.670;11.936;2022-08-11T10:20:13;2.00;;;1.20;;
62475;SDS011;50739;45.670;11.936;2022-08-11T10:25:17;1.20;;;1.10;;
62475;SDS011;50739;45.670;11.936;2022-08-11T10:30:36;2.57;;;1.17;;
62475;SDS011;50739;45.670;11.936;2022-08-11T10:35:58;3.00;;;1.25;;
62475;SDS011;50739;45.670;11.936;2022-08-11T10:41:00;1.63;;;1.13;;
62475;SDS011;50739;45.670;11.936;2022-08-11T10:46:20;1.60;;;1.20;;
62475;SDS011;50739;45.670;11.936;2022-08-11T10:51:57;1.65;;;1.15;;
62475;SDS011;50739;45.670;11.936;2022-08-11T10:57:17;1.88;;;1.20;;
62475;SDS011;50739;45.670;11.936;2022-08-11T11:02:37;1.10;;;1.00;;
62475;SDS011;50739;45.670;11.936;2022-08-11T11:07:44;1.88;;;1.30;;
62475;SDS011;50739;45.670;11.936;2022-08-11T11:12:52;3.75;;;1.42;;
62475;SDS011;50739;45.670;11.936;2022-08-11T11:18:15;1.92;;;1.17;;
62475;SDS011;50739;45.670;11.936;2022-08-11T11:23:24;1.80;;;1.42;;
62475;SDS011;50739;45.670;11.936;2022-08-11T11:28:31;4.20;;;1.23;;
62475;SDS011;50739;45.670;11.936;2022-08-11T11:34:05;2.37;;;1.20;;
62475;SDS011;50739;45.670;11.936;2022-08-11T11:39:24;1.65;;;1.17;;
62475;SDS011;50739;45.670;11.936;2022-08-11T11:44:28;1.70;;;1.37;;
62475;SDS011;50739;45.670;11.936;2022-08-11T11:49:31;2.05;;;1.30;;
62475;SDS011;50739;45.670;11.936;2022-08-11T11:54:39;1.60;;;1.20;;
62475;SDS011;50739;45.670;11.936;2022-08-11T11:59:42;2.08;;;1.40;;
62475;SDS011;50739;45.670;11.936;2022-08-11T12:05:03;1.90;;;1.10;;
62475;SDS011;50739;45.670;11.936;2022-08-11T12:10:08;2.33;;;1.20;;
62475;SDS011;50739;45.670;11.936;2022-08-11T12:15:11;2.17;;;1.38;;
62475;SDS011;50739;45.670;11.936;2022-08-11T12:20:14;4.45;;;1.48;;
62475;SDS011;50739;45.670;11.936;2022-08-11T12:25:21;1.47;;;1.20;;
62475;SDS011;50739;45.670;11.936;2022-08-11T12:30:41;1.30;;;1.20;;
62475;SDS011;50739;45.670;11.936;2022-08-11T12:35:46;2.97;;;1.30;;
62475;SDS011;50739;45.670;11.936;2022-08-11T12:40:53;2.00;;;1.20;;
62475;SDS011;50739;45.670;11.936;2022-08-11T12:46:15;1.95;;;1.40;;
62475;SDS011;50739;45.670;11.936;2022-08-11T12:51:21;2.92;;;1.30;;
62475;SDS011;50739;45.670;11.936;2022-08-11T12:56:45;1.05;;;1.00;;
62475;SDS011;50739;45.670;11.936;2022-08-11T13:02:06;2.00;;;1.20;;
62475;SDS011;50739;45.670;11.936;2022-08-11T13:07:27;2.80;;;1.33;;
62475;SDS011;50739;45.670;11.936;2022-08-11T13:12:33;2.60;;;1.20;;
62475;SDS011;50739;45.670;11.936;2022-08-11T13:17:49;2.55;;;1.30;;
62475;SDS011;50739;45.670;11.936;2022-08-11T13:22:53;2.67;;;1.30;;
62475;SDS011;50739;45.670;11.936;2022-08-11T13:27:58;1.40;;;1.30;;
62475;SDS011;50739;45.670;11.936;2022-08-11T13:33:01;1.48;;;1.30;;
62475;SDS011;50739;45.670;11.936;2022-08-11T13:38:05;1.73;;;1.40;;
62475;SDS011;50739;45.670;11.936;2022-08-11T13:43:14;2.05;;;1.20;;
62475;SDS011;50739;45.670;11.936;2022-08-11T13:48:17;1.40;;;1.17;;
62475;SDS011;50739;45.670;11.936;2022-08-11T13:53:20;1.47;;;1.30;;
62475;SDS011;50739;45.670;11.936;2022-08-11T13:58:25;1.65;;;1.30;;
62475;SDS011;50739;45.670;11.936;2022-08-11T14:03:29;1.30;;;1.20;;
62475;SDS011;50739;45.670;11.936;2022-08-11T14:08:34;2.00;;;1.10;;
62475;SDS011;50739;45.670;11.936;2022-08-11T14:13:41;1.30;;;1.20;;
62475;SDS011;50739;45.670;11.936;2022-08-11T14:18:46;1.30;;;1.20;;
62475;SDS011;50739;45.670;11.936;2022-08-11T14:23:50;2.58;;;1.58;;
62475;SDS011;50739;45.670;11.936;2022-08-11T14:28:56;1.98;;;1.40;;
62475;SDS011;50739;45.670;11.936;2022-08-11T14:34:02;1.48;;;1.38;;
62475;SDS011;50739;45.670;11.936;2022-08-11T14:39:06;1.30;;;1.20;;
62475;SDS011;50739;45.670;11.936;2022-08-11T14:44:13;2.33;;;1.42;;
62475;SDS011;50739;45.670;11.936;2022-08-11T14:49:33;2.50;;;1.43;;
62475;SDS011;50739;45.670;11.936;2022-08-11T14:54:37;1.75;;;1.30;;
62475;SDS011;50739;45.670;11.936;2022-08-11T15:00:01;2.80;;;1.30;;
62475;SDS011;50739;45.670;11.936;2022-08-11T15:05:06;1.33;;;1.23;;
62475;SDS011;50739;45.670;11.936;2022-08-11T15:10:08;1.83;;;1.25;;
62475;SDS011;50739;45.670;11.936;2022-08-11T15:20:24;2.33;;;1.40;;
62475;SDS011;50739;45.670;11.936;2022-08-11T15:25:46;4.10;;;1.20;;
62475;SDS011;50739;45.670;11.936;2022-08-11T15:30:52;1.73;;;1.23;;
62475;SDS011;50739;45.670;11.936;2022-08-11T15:36:15;1.75;;;1.30;;
62475;SDS011;50739;45.670;11.936;2022-08-11T15:41:37;2.60;;;1.27;;
62475;SDS011;50739;45.670;11.936;2022-08-11T15:46:59;3.70;;;1.45;;
62475;SDS011;50739;45.670;11.936;2022-08-11T15:52:05;2.17;;;1.50;;
62475;SDS011;50739;45.670;11.936;2022-08-11T15:57:10;2.85;;;1.38;;
62475;SDS011;50739;45.670;11.936;2022-08-11T16:02:34;2.42;;;1.38;;
62475;SDS011;50739;45.670;11.936;2022-08-11T16:07:55;2.10;;;1.38;;
62475;SDS011;50739;45.670;11.936;2022-08-11T16:12:59;1.90;;;1.40;;
62475;SDS011;50739;45.670;11.936;2022-08-11T16:18:18;2.92;;;1.02;;
62475;SDS011;50739;45.670;11.936;2022-08-11T16:23:22;2.20;;;1.25;;
62475;SDS011;50739;45.670;11.936;2022-08-11T16:28:28;1.57;;;1.13;;
62475;SDS011;50739;45.670;11.936;2022-08-11T16:33:31;3.00;;;1.40;;
62475;SDS011;50739;45.670;11.936;2022-08-11T16:38:35;2.40;;;1.33;;
62475;SDS011;50739;45.670;11.936;2022-08-11T16:43:40;3.20;;;1.10;;
62475;SDS011;50739;45.670;11.936;2022-08-11T16:49:02;3.30;;;1.30;;
62475;SDS011;50739;45.670;11.936;2022-08-11T16:54:07;1.58;;;1.10;;
62475;SDS011;50739;45.670;11.936;2022-08-11T16:59:10;1.25;;;1.10;;
62475;SDS011;50739;45.670;11.936;2022-08-11T17:04:19;2.80;;;1.13;;
62475;SDS011;50739;45.670;11.936;2022-08-11T17:09:44;3.30;;;1.30;;
62475;SDS011;50739;45.670;11.936;2022-08-11T17:15:08;2.20;;;1.20;;
62475;SDS011;50739;45.670;11.936;2022-08-11T17:20:28;2.80;;;1.42;;
62475;SDS011;50739;45.670;11.936;2022-08-11T17:25:32;2.95;;;1.15;;
62475;SDS011;50739;45.670;11.936;2022-08-11T17:30:34;3.72;;;1.58;;
62475;SDS011;50739;45.670;11.936;2022-08-11T17:35:56;1.63;;;1.10;;
62475;SDS011;50739;45.670;11.936;2022-08-11T17:41:01;1.42;;;1.20;;
62475;SDS011;50739;45.670;11.936;2022-08-11T17:46:21;2.85;;;1.15;;
62475;SDS011;50739;45.670;11.936;2022-08-11T17:51:41;2.20;;;1.50;;
62475;SDS011;50739;45.670;11.936;2022-08-11T17:57:04;2.90;;;1.50;;
62475;SDS011;50739;45.670;11.936;2022-08-11T18:02:25;5.22;;;1.80;;
62475;SDS011;50739;45.670;11.936;2022-08-11T18:07:48;5.80;;;2.10;;
62475;SDS011;50739;45.670;11.936;2022-08-11T18:13:12;3.50;;;2.00;;
62475;SDS011;50739;45.670;11.936;2022-08-11T18:18:32;3.45;;;2.00;;
62475;SDS011;50739;45.670;11.936;2022-08-11T18:23:51;3.92;;;1.67;;
62475;SDS011;50739;45.670;11.936;2022-08-11T18:29:13;2.55;;;1.63;;
62475;SDS011;50739;45.670;11.936;2022-08-11T18:34:39;3.38;;;1.80;;
62475;SDS011;50739;45.670;11.936;2022-08-11T18:40:01;4.32;;;2.00;;
62475;SDS011;50739;45.670;11.936;2022-08-11T18:45:26;3.05;;;1.70;;
62475;SDS011;50739;45.670;11.936;2022-08-11T18:50:46;2.53;;;1.52;;
62475;SDS011;50739;45.670;11.936;2022-08-11T18:56:07;2.10;;;1.60;;
62475;SDS011;50739;45.670;11.936;2022-08-11T19:01:28;2.70;;;1.40;;
62475;SDS011;50739;45.670;11.936;2022-08-11T19:06:53;2.80;;;1.80;;
62475;SDS011;50739;45.670;11.936;2022-08-11T19:12:15;3.90;;;1.50;;
62475;SDS011;50739;45.670;11.936;2022-08-11T19:17:37;5.00;;;1.63;;
62475;SDS011;50739;45.670;11.936;2022-08-11T19:22:59;2.17;;;1.50;;
62475;SDS011;50739;45.670;11.936;2022-08-11T19:28:20;4.25;;;1.65;;
62475;SDS011;50739;45.670;11.936;2022-08-11T19:33:42;1.63;;;1.50;;
62475;SDS011;50739;45.670;11.936;2022-08-11T19:39:03;4.38;;;2.10;;
62475;SDS011;50739;45.670;11.936;2022-08-11T19:44:23;3.22;;;1.92;;
62475;SDS011;50739;45.670;11.936;2022-08-11T19:49:44;3.53;;;2.50;;
62475;SDS011;50739;45.670;11.936;2022-08-11T19:55:05;4.03;;;2.60;;
62475;SDS011;50739;45.670;11.936;2022-08-11T20:00:26;6.00;;;2.58;;
62475;SDS011;50739;45.670;11.936;2022-08-11T20:05:48;4.13;;;2.10;;
62475;SDS011;50739;45.670;11.936;2022-08-11T20:11:08;4.80;;;2.60;;
62475;SDS011;50739;45.670;11.936;2022-08-11T20:16:29;3.38;;;2.10;;
62475;SDS011;50739;45.670;11.936;2022-08-11T20:21:52;5.50;;;2.67;;
62475;SDS011;50739;45.670;11.936;2022-08-11T20:27:14;3.17;;;2.30;;
62475;SDS011;50739;45.670;11.936;2022-08-11T20:32:34;5.03;;;2.70;;
62475;SDS011;50739;45.670;11.936;2022-08-11T20:37:56;3.90;;;2.33;;
62475;SDS011;50739;45.670;11.936;2022-08-11T20:43:17;4.13;;;2.55;;
62475;SDS011;50739;45.670;11.936;2022-08-11T20:48:38;4.30;;;2.22;;
62475;SDS011;50739;45.670;11.936;2022-08-11T20:54:00;3.57;;;2.70;;
62475;SDS011;50739;45.670;11.936;2022-08-11T20:59:21;5.80;;;3.05;;
62475;SDS011;50739;45.670;11.936;2022-08-11T21:04:41;3.30;;;2.60;;
62475;SDS011;50739;45.670;11.936;2022-08-11T21:10:04;5.90;;;2.70;;
62475;SDS011;50739;45.670;11.936;2022-08-11T21:15:28;5.27;;;3.17;;
62475;SDS011;50739;45.670;11.936;2022-08-11T21:20:49;5.95;;;2.97;;
62475;SDS011;50739;45.670;11.936;2022-08-11T21:26:10;5.70;;;3.07;;
62475;SDS011;50739;45.670;11.936;2022-08-11T21:31:33;5.65;;;3.00;;
62475;SDS011;50739;45.670;11.936;2022-08-11T21:36:54;4.80;;;2.80;;
62475;SDS011;50739;45.670;11.936;2022-08-11T21:42:16;3.83;;;2.70;;
62475;SDS011;50739;45.670;11.936;2022-08-11T21:47:38;3.55;;;2.85;;
62475;SDS011;50739;45.670;11.936;2022-08-11T21:52:59;4.72;;;3.10;;
62475;SDS011;50739;45.670;11.936;2022-08-11T21:58:21;4.53;;;2.72;;
62475;SDS011;50739;45.670;11.936;2022-08-11T22:03:42;4.70;;;3.03;;
62475;SDS011;50739;45.670;11.936;2022-08-11T22:09:02;4.30;;;2.40;;
62475;SDS011;50739;45.670;11.936;2022-08-11T22:14:23;4.07;;;2.63;;
62475;SDS011;50739;45.670;11.936;2022-08-11T22:19:42;4.15;;;2.20;;
62475;SDS011;50739;45.670;11.936;2022-08-11T22:25:02;3.08;;;2.20;;
62475;SDS011;50739;45.670;11.936;2022-08-11T22:30:23;3.53;;;2.27;;
62475;SDS011;50739;45.670;11.936;2022-08-11T22:35:44;2.85;;;2.30;;
62475;SDS011;50739;45.670;11.936;2022-08-11T22:41:06;4.72;;;2.30;;
62475;SDS011;50739;45.670;11.936;2022-08-11T22:46:26;5.40;;;2.70;;
62475;SDS011;50739;45.670;11.936;2022-08-11T22:51:48;5.43;;;2.45;;
62475;SDS011;50739;45.670;11.936;2022-08-11T22:57:08;4.40;;;2.80;;
62475;SDS011;50739;45.670;11.936;2022-08-11T23:02:29;2.88;;;2.30;;
62475;SDS011;50739;45.670;11.936;2022-08-11T23:07:49;5.57;;;2.50;;
62475;SDS011;50739;45.670;11.936;2022-08-11T23:13:09;4.70;;;2.50;;
62475;SDS011;50739;45.670;11.936;2022-08-11T23:18:30;3.40;;;2.35;;
62475;SDS011;50739;45.670;11.936;2022-08-11T23:23:50;4.53;;;2.80;;
62475;SDS011;50739;45.670;11.936;2022-08-11T23:29:10;4.50;;;2.50;;
62475;SDS011;50739;45.670;11.936;2022-08-11T23:34:33;5.23;;;2.60;;
62475;SDS011;50739;45.670;11.936;2022-08-11T23:39:54;5.40;;;2.67;;
62475;SDS011;50739;45.670;11.936;2022-08-11T23:45:13;3.30;;;2.50;;
62475;SDS011;50739;45.670;11.936;2022-08-11T23:50:35;4.95;;;2.40;;
62475;SDS011;50739;45.670;11.936;2022-08-11T23:55:54;4.72;;;2.60;;
